Time;durP1;ratioP1;P1;durP2;ratioP2;P2;SDS_P1;SDS_P2;PMS_P1;PMS_P2;Temp;Humidity;BMP_temperature;BMP_pressure;BME280_temperature;BME280_humidity;BME280_pressure;Samples;Min_cycle;Max_cycle;Signal;HPM_P1;HPM_P2
2021/04/06 00:00:22;;;;;;;13.95;5.82;;;;;;;;;;5037293;28;20170;-78
2021/04/06 00:02:50;;;;;;;8.15;5.55;;;;;;;;;;5037945;28;20170;-78
2021/04/06 00:05:16;;;;;;;16.92;6.03;;;;;;;;;;5052712;28;20178;-78
2021/04/06 00:07:43;;;;;;;8.02;5.35;;;;;;;;;;5039463;28;20560;-78
2021/04/06 00:10:12;;;;;;;11.27;5.30;;;;;;;;;;5040063;28;20178;-78
2021/04/06 00:12:39;;;;;;;7.15;4.68;;;;;;;;;;5039396;28;20213;-78
2021/04/06 00:15:08;;;;;;;11.15;4.70;;;;;;;;;;5040924;28;20269;-78
2021/04/06 00:17:34;;;;;;;7.68;4.53;;;;;;;;;;5039249;28;20209;-78
2021/04/06 00:20:01;;;;;;;5.10;4.53;;;;;;;;;;5040131;28;20196;-79
2021/04/06 00:22:29;;;;;;;4.35;2.97;;;;;;;;;;5033901;28;20538;-78
2021/04/06 00:24:56;;;;;;;6.63;4.20;;;;;;;;;;5037569;28;20180;-78
2021/04/06 00:27:23;;;;;;;5.72;4.72;;;;;;;;;;5035867;28;20178;-78
2021/04/06 00:29:52;;;;;;;7.93;4.07;;;;;;;;;;5036142;28;20178;-78
2021/04/06 00:32:19;;;;;;;7.10;3.58;;;;;;;;;;5038103;28;20174;-78
2021/04/06 00:34:45;;;;;;;6.40;4.00;;;;;;;;;;5037467;28;20296;-78
2021/04/06 00:37:14;;;;;;;7.25;4.47;;;;;;;;;;5037983;28;20178;-78
2021/04/06 00:39:41;;;;;;;6.35;3.55;;;;;;;;;;5040454;28;20184;-78
2021/04/06 00:42:12;;;;;;;5.30;4.15;;;;;;;;;;5039638;28;20194;-78
2021/04/06 00:44:43;;;;;;;8.40;5.47;;;;;;;;;;5047020;28;20176;-78
2021/04/06 00:47:12;;;;;;;5.40;3.03;;;;;;;;;;5038300;28;20181;-77
2021/04/06 00:49:38;;;;;;;6.00;2.95;;;;;;;;;;5040447;28;20214;-78
2021/04/06 00:52:06;;;;;;;8.48;3.45;;;;;;;;;;5040715;28;20213;-78
2021/04/06 00:54:33;;;;;;;4.25;2.90;;;;;;;;;;5055934;28;20240;-78
2021/04/06 00:57:00;;;;;;;6.50;2.90;;;;;;;;;;5038433;28;20181;-78
2021/04/06 00:59:27;;;;;;;7.20;3.55;;;;;;;;;;5039990;28;20201;-78
2021/04/06 01:01:57;;;;;;;6.65;2.95;;;;;;;;;;5042172;28;20186;-78
2021/04/06 01:04:24;;;;;;;6.57;3.38;;;;;;;;;;5039959;28;20182;-78
2021/04/06 01:07:09;;;;;;;8.82;4.15;;;;;;;;;;5040164;28;20359;-78
2021/04/06 01:10:04;;;;;;;3.97;3.13;;;;;;;;;;5042364;28;20190;-78
2021/04/06 01:12:31;;;;;;;3.85;2.75;;;;;;;;;;5036657;28;20232;-78
2021/04/06 01:14:57;;;;;;;4.05;2.53;;;;;;;;;;5043561;28;20173;-78
2021/04/06 01:17:27;;;;;;;6.30;3.08;;;;;;;;;;5038523;28;20228;-77
2021/04/06 01:19:54;;;;;;;5.72;3.20;;;;;;;;;;5037227;28;20185;-77
2021/04/06 01:22:20;;;;;;;6.18;3.53;;;;;;;;;;5037966;28;20179;-77
2021/04/06 01:24:47;;;;;;;8.95;3.90;;;;;;;;;;5042398;28;20178;-77
2021/04/06 01:27:14;;;;;;;6.40;3.10;;;;;;;;;;5037707;28;20193;-78
2021/04/06 01:29:41;;;;;;;6.82;3.38;;;;;;;;;;5042341;28;20178;-78
2021/04/06 01:32:07;;;;;;;10.73;3.40;;;;;;;;;;5037264;28;20245;-77
2021/04/06 01:34:34;;;;;;;5.97;2.70;;;;;;;;;;5038798;28;20186;-78
2021/04/06 01:37:00;;;;;;;4.47;2.75;;;;;;;;;;5039895;28;20170;-78
2021/04/06 01:39:28;;;;;;;3.17;2.53;;;;;;;;;;5042642;28;20660;-78
2021/04/06 01:42:01;;;;;;;11.32;2.90;;;;;;;;;;5038376;28;20173;-78
2021/04/06 01:44:27;;;;;;;7.38;3.88;;;;;;;;;;5039107;28;20169;-77
2021/04/06 01:46:55;;;;;;;6.40;2.95;;;;;;;;;;5039053;28;20189;-78
2021/04/06 01:49:21;;;;;;;10.98;3.70;;;;;;;;;;5037313;28;20186;-78
2021/04/06 01:51:48;;;;;;;3.35;2.85;;;;;;;;;;5053377;28;20179;-77
2021/04/06 01:54:18;;;;;;;4.72;2.75;;;;;;;;;;5037674;28;20220;-77
2021/04/06 01:56:54;;;;;;;5.47;2.78;;;;;;;;;;5041584;28;20177;-77
2021/04/06 01:59:27;;;;;;;3.80;2.15;;;;;;;;;;5055897;28;20205;-77
2021/04/06 02:01:55;;;;;;;5.28;2.70;;;;;;;;;;5037218;28;20174;-77
2021/04/06 02:04:23;;;;;;;7.65;2.63;;;;;;;;;;5035583;28;20240;-78
2021/04/06 02:06:50;;;;;;;5.78;3.20;;;;;;;;;;5040710;28;20170;-77
2021/04/06 02:09:18;;;;;;;6.25;2.83;;;;;;;;;;5052980;28;20217;-78
2021/04/06 02:11:45;;;;;;;10.35;2.03;;;;;;;;;;5036360;28;20170;-78
2021/04/06 02:14:15;;;;;;;4.55;2.35;;;;;;;;;;5040114;28;20173;-78
2021/04/06 02:16:57;;;;;;;3.42;2.30;;;;;;;;;;5035770;28;20190;-78
2021/04/06 02:19:28;;;;;;;4.88;2.50;;;;;;;;;;5035922;28;20214;-77
2021/04/06 02:21:56;;;;;;;7.30;2.90;;;;;;;;;;5030624;28;20182;-78
2021/04/06 02:24:26;;;;;;;4.45;2.15;;;;;;;;;;5037793;28;20179;-77
2021/04/06 02:27:02;;;;;;;4.90;3.00;;;;;;;;;;5042170;28;20189;-77
2021/04/06 02:29:28;;;;;;;4.72;2.00;;;;;;;;;;5054135;28;20177;-78
2021/04/06 02:31:54;;;;;;;2.47;2.10;;;;;;;;;;5035873;28;20443;-77
2021/04/06 02:34:20;;;;;;;2.38;2.17;;;;;;;;;;5037908;28;20268;-78
2021/04/06 02:36:46;;;;;;;4.70;2.50;;;;;;;;;;5040532;28;20186;-78
2021/04/06 02:39:12;;;;;;;4.15;2.50;;;;;;;;;;5055248;28;20668;-78
2021/04/06 02:41:39;;;;;;;5.43;2.50;;;;;;;;;;5043817;28;20589;-78
2021/04/06 02:44:05;;;;;;;5.75;3.10;;;;;;;;;;5040018;28;20182;-78
2021/04/06 02:46:32;;;;;;;4.60;3.28;;;;;;;;;;5035261;28;20186;-78
2021/04/06 02:49:01;;;;;;;6.22;2.50;;;;;;;;;;5035333;28;20213;-78
2021/04/06 02:51:27;;;;;;;5.15;2.25;;;;;;;;;;5053370;28;20214;-78
2021/04/06 02:53:54;;;;;;;5.13;2.35;;;;;;;;;;5038151;28;20212;-79
2021/04/06 02:56:34;;;;;;;6.22;3.15;;;;;;;;;;5040308;28;20185;-78
2021/04/06 02:59:13;;;;;;;4.15;2.85;;;;;;;;;;5035252;28;20247;-78
2021/04/06 03:01:39;;;;;;;6.25;2.50;;;;;;;;;;5038168;28;20205;-78
2021/04/06 03:04:25;;;;;;;5.82;2.50;;;;;;;;;;5037428;28;20229;-78
2021/04/06 03:06:53;;;;;;;4.10;2.75;;;;;;;;;;5039933;28;20208;-78
2021/04/06 03:09:24;;;;;;;5.43;2.60;;;;;;;;;;5038039;28;20209;-78
2021/04/06 03:11:54;;;;;;;5.60;2.40;;;;;;;;;;5034805;28;20241;-78
2021/04/06 03:14:24;;;;;;;4.97;2.42;;;;;;;;;;5036820;28;20200;-78
2021/04/06 03:16:51;;;;;;;10.80;3.17;;;;;;;;;;5034660;28;20181;-78
2021/04/06 03:19:18;;;;;;;6.75;3.40;;;;;;;;;;5035393;28;20210;-78
2021/04/06 03:21:44;;;;;;;5.88;2.85;;;;;;;;;;5039559;28;20192;-78
2021/04/06 03:24:10;;;;;;;5.00;3.80;;;;;;;;;;5036217;28;20194;-78
2021/04/06 03:26:37;;;;;;;5.90;3.10;;;;;;;;;;5038470;28;20170;-78
2021/04/06 03:29:04;;;;;;;8.02;3.45;;;;;;;;;;5035068;28;20241;-78
2021/04/06 03:31:34;;;;;;;6.28;4.20;;;;;;;;;;5038325;28;20250;-78
2021/04/06 03:34:00;;;;;;;8.70;3.92;;;;;;;;;;5037875;28;20186;-78
2021/04/06 03:36:26;;;;;;;6.65;4.63;;;;;;;;;;5052238;28;20249;-78
2021/04/06 03:38:54;;;;;;;12.30;5.18;;;;;;;;;;5036561;28;20217;-78
2021/04/06 03:41:22;;;;;;;6.15;4.28;;;;;;;;;;5036560;28;20178;-78
2021/04/06 03:43:48;;;;;;;8.88;4.55;;;;;;;;;;5038516;28;20225;-77
2021/04/06 03:46:21;;;;;;;6.88;5.18;;;;;;;;;;5035844;28;20720;-78
2021/04/06 03:48:47;;;;;;;10.75;5.13;;;;;;;;;;5039116;28;20190;-78
2021/04/06 03:51:29;;;;;;;10.90;5.60;;;;;;;;;;5050545;28;20232;-77
2021/04/06 03:53:57;;;;;;;7.32;5.75;;;;;;;;;;5039124;28;20178;-77
2021/04/06 03:56:30;;;;;;;6.78;5.22;;;;;;;;;;5034361;28;20173;-77
2021/04/06 03:59:10;;;;;;;10.68;5.15;;;;;;;;;;5034672;28;20202;-77
2021/04/06 04:01:36;;;;;;;11.85;6.88;;;;;;;;;;5034477;28;20174;-77
2021/04/06 04:04:02;;;;;;;7.20;6.15;;;;;;;;;;5036974;28;20212;-77
2021/04/06 04:06:31;;;;;;;6.93;5.85;;;;;;;;;;5050207;28;20182;-77
2021/04/06 04:08:57;;;;;;;9.98;5.97;;;;;;;;;;5040744;28;20648;-78
2021/04/06 04:11:23;;;;;;;10.30;7.05;;;;;;;;;;5046057;28;20656;-77
2021/04/06 04:13:49;;;;;;;9.18;6.22;;;;;;;;;;5034990;28;20194;-77
2021/04/06 04:16:15;;;;;;;6.50;5.90;;;;;;;;;;5035059;28;20190;-77
2021/04/06 04:18:41;;;;;;;11.52;7.15;;;;;;;;;;5037899;28;20229;-77
2021/04/06 04:21:12;;;;;;;7.47;6.47;;;;;;;;;;5034911;28;20190;-77
2021/04/06 04:23:38;;;;;;;9.50;6.68;;;;;;;;;;5041541;28;20173;-77
2021/04/06 04:26:04;;;;;;;9.23;6.93;;;;;;;;;;5034151;28;20245;-77
2021/04/06 04:28:30;;;;;;;14.20;7.50;;;;;;;;;;5033953;28;20250;-77
2021/04/06 04:30:58;;;;;;;8.43;6.07;;;;;;;;;;5037974;28;20184;-77
2021/04/06 04:33:24;;;;;;;12.07;6.55;;;;;;;;;;5035911;28;20209;-77
2021/04/06 04:35:50;;;;;;;8.98;6.90;;;;;;;;;;5036098;28;20256;-77
2021/04/06 04:38:16;;;;;;;12.50;6.95;;;;;;;;;;5038560;28;20213;-77
2021/04/06 04:40:43;;;;;;;8.95;7.28;;;;;;;;;;5034606;28;20186;-77
2021/04/06 04:43:09;;;;;;;7.63;7.03;;;;;;;;;;5036486;28;20182;-77
2021/04/06 04:45:35;;;;;;;10.65;8.10;;;;;;;;;;5037174;28;20179;-77
2021/04/06 04:48:01;;;;;;;10.45;6.43;;;;;;;;;;5034093;28;20197;-77
2021/04/06 04:50:27;;;;;;;8.07;6.55;;;;;;;;;;5036373;28;20178;-77
2021/04/06 04:52:53;;;;;;;13.23;6.70;;;;;;;;;;5036582;28;20186;-77
2021/04/06 04:55:20;;;;;;;9.45;7.35;;;;;;;;;;5034829;28;20182;-77
2021/04/06 04:57:46;;;;;;;11.73;7.80;;;;;;;;;;5038331;28;20301;-76
2021/04/06 05:00:13;;;;;;;9.60;6.43;;;;;;;;;;5034275;28;20186;-76
2021/04/06 05:02:39;;;;;;;9.65;6.75;;;;;;;;;;5037380;28;20180;-76
2021/04/06 05:05:06;;;;;;;12.45;8.10;;;;;;;;;;5037548;28;20555;-76
2021/04/06 05:07:32;;;;;;;8.55;7.63;;;;;;;;;;5033426;28;20246;-77
2021/04/06 05:09:58;;;;;;;10.35;8.23;;;;;;;;;;5033599;28;20186;-77
2021/04/06 05:12:24;;;;;;;11.88;8.77;;;;;;;;;;5032985;28;20182;-77
2021/04/06 05:14:51;;;;;;;10.85;8.38;;;;;;;;;;5037426;28;20667;-77
2021/04/06 05:17:17;;;;;;;8.95;8.00;;;;;;;;;;5034942;28;20597;-77
2021/04/06 05:19:43;;;;;;;12.25;9.07;;;;;;;;;;5038748;28;20265;-77
2021/04/06 05:22:09;;;;;;;10.70;9.20;;;;;;;;;;5036221;28;20241;-78
2021/04/06 05:24:35;;;;;;;12.57;8.73;;;;;;;;;;5052440;28;20254;-78
2021/04/06 05:27:01;;;;;;;13.25;9.07;;;;;;;;;;5038421;28;20178;-77
2021/04/06 05:29:27;;;;;;;12.68;9.88;;;;;;;;;;5039397;28;20249;-77
2021/04/06 05:31:53;;;;;;;14.30;10.27;;;;;;;;;;5037506;28;20189;-78
2021/04/06 05:34:19;;;;;;;12.50;9.38;;;;;;;;;;5037628;28;20205;-78
2021/04/06 05:36:45;;;;;;;10.65;8.98;;;;;;;;;;5053786;28;20178;-78
2021/04/06 05:39:11;;;;;;;13.95;9.68;;;;;;;;;;5041313;28;20208;-77
2021/04/06 05:41:41;;;;;;;19.50;9.63;;;;;;;;;;5040781;28;20181;-77
2021/04/06 05:44:09;;;;;;;12.05;8.52;;;;;;;;;;5036592;28;20212;-77
2021/04/06 05:46:36;;;;;;;8.63;7.65;;;;;;;;;;5036724;28;20182;-76
2021/04/06 05:49:03;;;;;;;15.98;8.63;;;;;;;;;;5040360;28;20463;-77
2021/04/06 05:51:29;;;;;;;10.63;8.57;;;;;;;;;;5039559;28;20221;-77
2021/04/06 05:53:55;;;;;;;10.00;7.93;;;;;;;;;;5039128;28;20184;-77
2021/04/06 05:56:21;;;;;;;10.82;8.52;;;;;;;;;;5039056;28;20185;-77
2021/04/06 05:58:47;;;;;;;11.82;9.38;;;;;;;;;;5037683;28;20205;-77
2021/04/06 06:01:13;;;;;;;11.98;9.45;;;;;;;;;;5041541;28;20246;-77
2021/04/06 06:03:40;;;;;;;10.15;8.38;;;;;;;;;;5040789;28;20189;-77
2021/04/06 06:06:06;;;;;;;13.02;9.48;;;;;;;;;;5038025;28;24952;-76
2021/04/06 06:08:32;;;;;;;12.80;9.52;;;;;;;;;;5039021;28;20643;-76
2021/04/06 06:11:05;;;;;;;9.90;8.82;;;;;;;;;;5033517;28;20245;-76
2021/04/06 06:13:31;;;;;;;12.65;9.00;;;;;;;;;;5039567;28;20186;-76
2021/04/06 06:16:06;;;;;;;9.27;8.45;;;;;;;;;;5041869;28;20194;-77
2021/04/06 06:18:32;;;;;;;12.23;8.75;;;;;;;;;;5038984;28;20225;-76
2021/04/06 06:20:58;;;;;;;11.32;7.00;;;;;;;;;;5038562;28;20217;-76
2021/04/06 06:23:24;;;;;;;15.55;8.75;;;;;;;;;;5036903;28;20314;-76
2021/04/06 06:26:03;;;;;;;12.55;7.43;;;;;;;;;;5037613;28;20189;-76
2021/04/06 06:28:29;;;;;;;9.90;6.15;;;;;;;;;;5036476;28;20193;-76
2021/04/06 06:30:56;;;;;;;7.43;6.45;;;;;;;;;;5035901;28;20182;-76
2021/04/06 06:33:31;;;;;;;8.18;6.43;;;;;;;;;;5040661;28;20202;-76
2021/04/06 06:36:11;;;;;;;6.88;5.32;;;;;;;;;;5032918;28;20776;-76
2021/04/06 06:38:39;;;;;;;10.15;5.90;;;;;;;;;;5039646;28;20697;-77
2021/04/06 06:41:16;;;;;;;5.90;5.10;;;;;;;;;;5040375;28;20190;-77
2021/04/06 06:43:43;;;;;;;7.65;5.05;;;;;;;;;;5038829;28;20207;-77
2021/04/06 06:46:19;;;;;;;8.98;5.05;;;;;;;;;;5045463;28;20185;-78
2021/04/06 06:48:55;;;;;;;5.53;5.00;;;;;;;;;;5040362;28;20182;-78
2021/04/06 06:51:27;;;;;;;7.75;5.65;;;;;;;;;;5055994;28;20193;-77
2021/04/06 06:53:53;;;;;;;13.18;6.22;;;;;;;;;;5036627;28;20245;-78
2021/04/06 06:56:20;;;;;;;10.07;6.20;;;;;;;;;;5042085;28;20186;-77
2021/04/06 06:58:48;;;;;;;9.95;5.60;;;;;;;;;;5040745;28;20209;-79
2021/04/06 07:01:25;;;;;;;7.35;6.05;;;;;;;;;;5036829;28;20194;-78
2021/04/06 07:04:10;;;;;;;9.45;6.22;;;;;;;;;;5038453;28;20538;-82
2021/04/06 07:06:43;;;;;;;8.60;5.65;;;;;;;;;;5046012;28;20185;-82
2021/04/06 07:09:28;;;;;;;14.57;6.60;;;;;;;;;;5030820;28;20217;-79
2021/04/06 07:12:01;;;;;;;8.10;6.00;;;;;;;;;;5052466;28;20193;-81
2021/04/06 07:14:28;;;;;;;11.35;6.78;;;;;;;;;;5037757;28;20181;-81
2021/04/06 07:16:59;;;;;;;8.85;6.78;;;;;;;;;;5035770;28;20181;-79
2021/04/06 07:19:25;;;;;;;9.75;6.60;;;;;;;;;;5032821;28;20206;-80
2021/04/06 07:21:54;;;;;;;11.52;8.07;;;;;;;;;;5038041;28;20664;-80
2021/04/06 07:24:21;;;;;;;9.68;6.97;;;;;;;;;;5038465;28;20193;-81
2021/04/06 07:26:47;;;;;;;9.45;7.00;;;;;;;;;;5035485;28;20238;-78
2021/04/06 07:29:13;;;;;;;7.18;6.47;;;;;;;;;;5033799;28;20201;-80
2021/04/06 07:31:39;;;;;;;11.65;6.38;;;;;;;;;;5034109;28;20205;-79
2021/04/06 07:34:09;;;;;;;10.05;6.35;;;;;;;;;;5033142;28;20261;-81
2021/04/06 07:36:35;;;;;;;10.18;6.28;;;;;;;;;;5034221;28;20194;-81
2021/04/06 07:39:05;;;;;;;7.85;5.75;;;;;;;;;;5036581;28;20276;-80
2021/04/06 07:41:34;;;;;;;7.82;6.57;;;;;;;;;;5034741;28;20189;-80
2021/04/06 07:44:03;;;;;;;13.68;5.57;;;;;;;;;;5037590;28;20189;-81
2021/04/06 07:46:39;;;;;;;8.60;5.55;;;;;;;;;;5038250;28;20225;-81
2021/04/06 07:49:09;;;;;;;7.20;5.28;;;;;;;;;;5034965;28;20257;-82
2021/04/06 07:51:39;;;;;;;6.93;5.20;;;;;;;;;;5037435;28;20197;-81
2021/04/06 07:54:19;;;;;;;8.40;5.70;;;;;;;;;;5039081;28;20182;-81
2021/04/06 07:56:50;;;;;;;6.20;4.25;;;;;;;;;;5032124;28;20193;-79
2021/04/06 07:59:19;;;;;;;7.53;4.20;;;;;;;;;;5035147;28;20710;-81
2021/04/06 08:01:47;;;;;;;5.10;3.40;;;;;;;;;;5040844;28;20237;-81
2021/04/06 08:04:14;;;;;;;3.55;3.25;;;;;;;;;;5038900;28;20184;-83
2021/04/06 08:06:44;;;;;;;4.68;3.00;;;;;;;;;;5039870;28;20196;-79
2021/04/06 08:09:32;;;;;;;7.47;4.07;;;;;;;;;;5035262;28;20458;-81
2021/04/06 08:12:06;;;;;;;3.28;2.40;;;;;;;;;;5035384;28;20178;-80
2021/04/06 08:14:35;;;;;;;4.50;3.13;;;;;;;;;;5038480;28;20268;-79
2021/04/06 08:17:20;;;;;;;3.47;2.55;;;;;;;;;;5032615;28;20220;-80
2021/04/06 08:19:50;;;;;;;5.45;2.92;;;;;;;;;;5035011;28;20197;-81
2021/04/06 08:22:23;;;;;;;6.28;2.97;;;;;;;;;;5034587;28;20214;-80
2021/04/06 08:24:50;;;;;;;4.28;3.00;;;;;;;;;;5038196;28;20186;-81
2021/04/06 08:27:48;;;;;;;6.15;3.42;;;;;;;;;;5034431;28;20217;-79
2021/04/06 08:30:26;;;;;;;4.90;2.75;;;;;;;;;;4999960;28;20668;-80
2021/04/06 08:35:39;;;;;;;4.70;2.65;;;;;;;;;;5018801;28;20270;-80
2021/04/06 08:38:28;;;;;;;6.13;3.20;;;;;;;;;;5017694;28;20243;-81
2021/04/06 08:40:58;;;;;;;3.65;3.03;;;;;;;;;;5000261;28;20191;-81
2021/04/06 08:43:28;;;;;;;14.13;3.50;;;;;;;;;;5018825;28;20212;-80
2021/04/06 08:45:54;;;;;;;6.93;3.28;;;;;;;;;;5019984;28;20233;-82
2021/04/06 08:48:39;;;;;;;4.95;3.03;;;;;;;;;;5017943;28;20190;-81
2021/04/06 08:51:25;;;;;;;3.20;2.80;;;;;;;;;;4999008;28;20191;-83
2021/04/06 08:54:00;;;;;;;3.15;2.58;;;;;;;;;;4977967;28;20206;-80
2021/04/06 08:56:31;;;;;;;3.88;1.98;;;;;;;;;;4978234;28;20223;-81
2021/04/06 08:59:16;;;;;;;5.70;2.22;;;;;;;;;;4959421;28;20212;-81
2021/04/06 09:01:43;;;;;;;3.85;2.72;;;;;;;;;;4982359;28;20212;-82
2021/04/06 09:04:10;;;;;;;3.88;2.70;;;;;;;;;;4983549;28;20187;-82
2021/04/06 09:06:36;;;;;;;5.47;2.33;;;;;;;;;;4997833;28;20206;-81
2021/04/06 09:09:02;;;;;;;6.78;3.22;;;;;;;;;;4998348;28;20218;-82
2021/04/06 09:11:28;;;;;;;3.33;2.83;;;;;;;;;;4982989;28;20230;-82
2021/04/06 09:13:54;;;;;;;3.85;2.78;;;;;;;;;;4992418;28;20247;-82
2021/04/06 09:16:23;;;;;;;3.85;2.35;;;;;;;;;;4998907;28;20183;-83
2021/04/06 09:18:59;;;;;;;5.40;2.33;;;;;;;;;;4995855;28;20219;-83
2021/04/06 09:21:26;;;;;;;5.05;2.50;;;;;;;;;;4995354;28;20186;-82
2021/04/06 09:23:56;;;;;;;4.20;2.35;;;;;;;;;;4992030;28;20200;-81
2021/04/06 09:26:22;;;;;;;4.75;2.50;;;;;;;;;;4999985;28;20332;-80
2021/04/06 09:28:58;;;;;;;3.33;2.25;;;;;;;;;;5000805;28;20187;-79
2021/04/06 09:31:31;;;;;;;3.25;1.90;;;;;;;;;;5033950;28;20188;-78
2021/04/06 09:34:03;;;;;;;4.00;2.50;;;;;;;;;;5046296;28;20193;-78
2021/04/06 09:36:29;;;;;;;2.85;2.03;;;;;;;;;;5039208;28;20184;-78
2021/04/06 09:38:56;;;;;;;2.00;1.80;;;;;;;;;;5036412;28;20201;-81
2021/04/06 09:41:27;;;;;;;3.08;2.25;;;;;;;;;;5037924;28;20205;-79
2021/04/06 09:43:53;;;;;;;2.80;2.30;;;;;;;;;;5040135;28;20217;-79
2021/04/06 09:46:19;;;;;;;1.48;1.38;;;;;;;;;;5037660;28;20174;-78
2021/04/06 09:48:52;;;;;;;2.10;1.90;;;;;;;;;;5036638;28;20387;-80
2021/04/06 09:51:20;;;;;;;3.97;2.55;;;;;;;;;;5039942;28;20282;-80
2021/04/06 09:53:46;;;;;;;2.17;1.85;;;;;;;;;;5037160;28;20679;-80
2021/04/06 09:56:12;;;;;;;6.00;2.42;;;;;;;;;;5052591;28;20224;-81
2021/04/06 09:58:38;;;;;;;2.92;2.00;;;;;;;;;;5035738;28;20209;-80
2021/04/06 10:01:21;;;;;;;4.93;2.33;;;;;;;;;;5038623;28;20503;-81
2021/04/06 10:03:48;;;;;;;3.30;2.78;;;;;;;;;;5039367;28;20201;-81
2021/04/06 10:06:14;;;;;;;3.42;2.15;;;;;;;;;;5036125;28;20198;-79
2021/04/06 10:08:41;;;;;;;4.68;2.40;;;;;;;;;;5037859;28;20205;-79
2021/04/06 10:11:08;;;;;;;3.10;2.55;;;;;;;;;;5053649;28;20212;-81
2021/04/06 10:13:35;;;;;;;3.53;2.45;;;;;;;;;;5034415;28;20177;-81
2021/04/06 10:16:09;;;;;;;3.95;2.55;;;;;;;;;;5042341;28;20177;-79
2021/04/06 10:18:43;;;;;;;3.28;2.20;;;;;;;;;;5034894;28;20223;-79
2021/04/06 10:21:17;;;;;;;3.00;2.75;;;;;;;;;;5037761;28;20193;-81
2021/04/06 10:23:43;;;;;;;7.10;2.88;;;;;;;;;;5035275;28;20227;-79
2021/04/06 10:26:19;;;;;;;4.82;2.35;;;;;;;;;;5038557;28;20268;-79
2021/04/06 10:28:45;;;;;;;4.38;2.38;;;;;;;;;;5051009;28;20197;-79
2021/04/06 10:31:12;;;;;;;4.30;1.92;;;;;;;;;;5038130;28;20210;-80
2021/04/06 10:33:38;;;;;;;3.50;2.38;;;;;;;;;;5035314;28;20450;-78
2021/04/06 10:36:06;;;;;;;4.53;2.88;;;;;;;;;;5037504;28;20224;-81
2021/04/06 10:38:34;;;;;;;3.53;2.58;;;;;;;;;;5036459;28;20205;-80
2021/04/06 10:41:02;;;;;;;4.60;2.50;;;;;;;;;;5053152;28;20182;-80
2021/04/06 10:43:28;;;;;;;2.85;2.55;;;;;;;;;;5036465;28;20174;-79
2021/04/06 10:46:08;;;;;;;6.57;1.90;;;;;;;;;;5036960;28;20174;-80
2021/04/06 10:48:36;;;;;;;2.60;1.55;;;;;;;;;;5048953;28;20263;-80
2021/04/06 10:51:22;;;;;;;4.75;1.40;;;;;;;;;;5039843;28;20701;-78
2021/04/06 10:53:49;;;;;;;3.63;1.67;;;;;;;;;;5036563;28;20202;-78
2021/04/06 10:56:19;;;;;;;2.40;1.50;;;;;;;;;;5051830;28;20190;-79
2021/04/06 10:58:45;;;;;;;2.38;2.17;;;;;;;;;;5035616;28;20206;-77
2021/04/06 11:01:12;;;;;;;3.50;1.63;;;;;;;;;;5039691;28;20257;-79
2021/04/06 11:03:43;;;;;;;3.30;1.45;;;;;;;;;;5035594;28;20181;-76
2021/04/06 11:06:13;;;;;;;2.33;1.30;;;;;;;;;;5031854;28;20222;-81
2021/04/06 11:08:40;;;;;;;1.90;1.70;;;;;;;;;;5037116;28;20214;-81
2021/04/06 11:11:17;;;;;;;3.72;1.40;;;;;;;;;;5035508;28;20220;-77
2021/04/06 11:13:43;;;;;;;2.45;1.20;;;;;;;;;;5034912;28;20185;-81
2021/04/06 11:16:09;;;;;;;1.98;1.17;;;;;;;;;;5038421;28;20178;-82
2021/04/06 11:18:35;;;;;;;2.63;1.10;;;;;;;;;;5032704;28;20233;-78
2021/04/06 11:21:01;;;;;;;2.85;1.27;;;;;;;;;;5037851;28;20178;-78
2021/04/06 11:23:27;;;;;;;1.95;1.20;;;;;;;;;;5040152;28;20216;-78
2021/04/06 11:25:53;;;;;;;2.50;0.90;;;;;;;;;;5033496;28;20174;-77
2021/04/06 11:28:19;;;;;;;4.63;1.60;;;;;;;;;;5039976;28;20452;-78
2021/04/06 11:30:45;;;;;;;3.33;1.20;;;;;;;;;;5035076;28;20754;-81
2021/04/06 11:33:11;;;;;;;3.25;1.30;;;;;;;;;;5034064;28;20181;-80
2021/04/06 11:35:37;;;;;;;3.08;1.70;;;;;;;;;;5038603;28;20237;-78
2021/04/06 11:38:03;;;;;;;1.45;1.35;;;;;;;;;;5039155;28;20212;-82
2021/04/06 11:40:29;;;;;;;2.15;1.27;;;;;;;;;;5037413;28;20185;-79
2021/04/06 11:42:56;;;;;;;1.60;0.80;;;;;;;;;;5042846;28;20178;-79
2021/04/06 11:45:22;;;;;;;4.72;1.10;;;;;;;;;;5025702;28;20186;-79
2021/04/06 11:47:49;;;;;;;3.65;1.40;;;;;;;;;;5028973;28;20193;-80
2021/04/06 11:50:15;;;;;;;1.67;1.20;;;;;;;;;;5038477;28;20197;-82
2021/04/06 11:52:41;;;;;;;1.80;0.80;;;;;;;;;;5037215;28;20193;-79
2021/04/06 11:55:07;;;;;;;2.55;1.05;;;;;;;;;;5028746;28;20228;-81
2021/04/06 11:57:33;;;;;;;1.92;0.95;;;;;;;;;;5031515;28;20190;-77
2021/04/06 11:59:59;;;;;;;1.88;1.33;;;;;;;;;;5032436;28;20193;-77
2021/04/06 12:02:25;;;;;;;1.35;1.10;;;;;;;;;;5037075;28;20662;-78
2021/04/06 12:04:51;;;;;;;2.47;1.00;;;;;;;;;;5038216;28;20205;-79
2021/04/06 12:07:17;;;;;;;4.00;1.70;;;;;;;;;;5030629;28;20179;-81
2021/04/06 12:09:43;;;;;;;1.55;1.10;;;;;;;;;;5033543;28;20178;-78
2021/04/06 12:12:09;;;;;;;2.60;1.50;;;;;;;;;;5027219;28;20186;-79
2021/04/06 12:14:35;;;;;;;2.58;1.10;;;;;;;;;;5028707;28;20213;-78
2021/04/06 12:17:01;;;;;;;2.35;1.00;;;;;;;;;;5029262;28;20193;-80
2021/04/06 12:19:27;;;;;;;2.95;1.33;;;;;;;;;;5028642;28;20213;-78
2021/04/06 12:21:53;;;;;;;2.17;1.17;;;;;;;;;;5032482;28;20174;-79
2021/04/06 12:24:19;;;;;;;4.65;1.85;;;;;;;;;;5032396;28;20778;-78
2021/04/06 12:26:45;;;;;;;1.42;1.30;;;;;;;;;;5034333;28;20189;-80
2021/04/06 12:29:11;;;;;;;3.50;2.30;;;;;;;;;;5036710;28;20186;-79
2021/04/06 12:31:37;;;;;;;1.80;1.10;;;;;;;;;;5030248;28;20189;-78
2021/04/06 12:34:03;;;;;;;2.73;1.80;;;;;;;;;;5037476;28;20424;-80
2021/04/06 12:36:29;;;;;;;2.17;1.58;;;;;;;;;;5040607;28;20440;-77
2021/04/06 12:38:55;;;;;;;4.40;1.80;;;;;;;;;;5038107;28;20220;-80
2021/04/06 12:41:21;;;;;;;7.68;2.45;;;;;;;;;;5054206;28;20448;-78
2021/04/06 12:43:47;;;;;;;3.00;2.70;;;;;;;;;;5042491;28;20197;-79
2021/04/06 12:46:13;;;;;;;2.17;1.90;;;;;;;;;;5041934;28;20438;-82
2021/04/06 12:48:39;;;;;;;2.95;2.25;;;;;;;;;;5042914;28;20200;-79
2021/04/06 12:51:05;;;;;;;2.97;2.70;;;;;;;;;;5039029;28;20194;-77
2021/04/06 12:53:31;;;;;;;3.22;2.05;;;;;;;;;;5040861;28;20193;-78
2021/04/06 12:55:57;;;;;;;3.67;2.43;;;;;;;;;;5039477;28;20232;-78
2021/04/06 12:58:23;;;;;;;4.15;2.75;;;;;;;;;;5042580;28;20456;-77
2021/04/06 13:00:49;;;;;;;5.07;2.60;;;;;;;;;;5039715;28;20166;-80
2021/04/06 13:03:15;;;;;;;2.47;2.20;;;;;;;;;;5040333;28;20197;-78
2021/04/06 13:05:41;;;;;;;3.20;2.17;;;;;;;;;;5040162;28;20193;-76
2021/04/06 13:08:10;;;;;;;4.95;3.22;;;;;;;;;;5041447;28;20777;-76
2021/04/06 13:10:39;;;;;;;2.28;2.00;;;;;;;;;;5041895;28;20192;-76
2021/04/06 13:13:05;;;;;;;3.08;1.90;;;;;;;;;;5043323;28;20200;-77
2021/04/06 13:15:32;;;;;;;3.38;2.10;;;;;;;;;;5039509;28;20192;-78
2021/04/06 13:17:58;;;;;;;2.38;2.15;;;;;;;;;;5039120;28;20594;-76
2021/04/06 13:20:24;;;;;;;3.73;2.00;;;;;;;;;;5034025;28;20186;-79
2021/04/06 13:22:51;;;;;;;5.60;2.23;;;;;;;;;;5040951;28;20405;-79
2021/04/06 13:25:17;;;;;;;3.23;1.70;;;;;;;;;;5043667;28;20428;-77
2021/04/06 13:27:43;;;;;;;3.67;1.50;;;;;;;;;;5042397;28;20498;-79
2021/04/06 13:30:11;;;;;;;1.90;1.70;;;;;;;;;;5040453;28;20436;-79
2021/04/06 13:32:37;;;;;;;2.90;1.60;;;;;;;;;;5040214;28;20439;-77
2021/04/06 13:35:04;;;;;;;2.05;1.70;;;;;;;;;;5041800;28;20178;-78
2021/04/06 13:37:30;;;;;;;2.58;1.30;;;;;;;;;;5042339;28;20176;-79
2021/04/06 13:39:56;;;;;;;2.30;1.30;;;;;;;;;;5040286;28;20177;-77
2021/04/06 13:42:23;;;;;;;4.20;1.60;;;;;;;;;;5038364;28;20509;-77
2021/04/06 13:44:49;;;;;;;2.55;1.60;;;;;;;;;;5029920;28;20721;-80
2021/04/06 13:47:15;;;;;;;2.75;2.08;;;;;;;;;;5039432;28;20178;-77
2021/04/06 13:49:41;;;;;;;1.92;1.60;;;;;;;;;;5042666;28;20216;-78
2021/04/06 13:52:08;;;;;;;2.08;1.85;;;;;;;;;;5054727;28;20221;-76
2021/04/06 13:54:34;;;;;;;3.97;1.65;;;;;;;;;;5038973;28;20260;-78
2021/04/06 13:57:00;;;;;;;2.60;1.40;;;;;;;;;;5037309;28;20178;-79
2021/04/06 13:59:29;;;;;;;1.60;1.20;;;;;;;;;;4959053;28;20868;-77
2021/04/06 14:01:55;;;;;;;2.38;1.25;;;;;;;;;;4964542;28;20472;-79
2021/04/06 14:04:21;;;;;;;1.90;1.43;;;;;;;;;;4966193;28;20182;-80
2021/04/06 14:06:47;;;;;;;3.07;1.90;;;;;;;;;;4965984;29;20991;-80
2021/04/06 14:09:13;;;;;;;5.10;1.73;;;;;;;;;;4964375;28;20436;-78
2021/04/06 14:11:39;;;;;;;2.00;1.40;;;;;;;;;;4961248;28;20472;-79
2021/04/06 14:14:05;;;;;;;3.30;1.60;;;;;;;;;;4964674;28;20188;-80
2021/04/06 14:16:31;;;;;;;3.08;1.50;;;;;;;;;;4961843;28;20433;-78
2021/04/06 14:18:57;;;;;;;2.20;1.10;;;;;;;;;;4981026;28;20243;-79
2021/04/06 14:21:23;;;;;;;6.85;1.80;;;;;;;;;;4964823;28;20247;-82
2021/04/06 14:23:49;;;;;;;4.80;1.30;;;;;;;;;;4957701;28;20221;-81
2021/04/06 14:26:17;;;;;;;2.03;1.40;;;;;;;;;;4964713;28;20173;-78
2021/04/06 14:28:43;;;;;;;2.47;1.48;;;;;;;;;;4963505;28;20459;-76
2021/04/06 14:31:09;;;;;;;4.05;1.45;;;;;;;;;;4964373;28;20189;-79
2021/04/06 14:33:35;;;;;;;1.50;1.30;;;;;;;;;;4961804;28;20253;-75
2021/04/06 14:36:01;;;;;;;1.50;0.95;;;;;;;;;;4963319;28;20189;-81
2021/04/06 14:38:28;;;;;;;1.15;1.05;;;;;;;;;;4963967;28;20220;-80
2021/04/06 14:40:55;;;;;;;2.40;1.50;;;;;;;;;;4978764;28;20215;-81
2021/04/06 14:43:27;;;;;;;5.50;1.20;;;;;;;;;;4963215;28;20312;-81
2021/04/06 14:45:57;;;;;;;3.53;1.23;;;;;;;;;;4963864;29;20208;-83
2021/04/06 14:48:24;;;;;;;3.92;1.42;;;;;;;;;;4962561;28;20187;-81
2021/04/06 14:50:50;;;;;;;1.65;1.20;;;;;;;;;;4961339;29;20199;-81